AST137 UUDD-URKA
Flight info
| Callsign | AST137 |
|---|---|
| Flight time | N/A |
| Altitude | FL350 |
| Route | LINRU L4 EKTUT N72 UMSIS N166 GOTIL G534 GISID L91 KL A100 AMEPU W316 RUDOL |
| Aircraft | A320/M-W/L |
Departure
| Time | 2026-05-05 11:54 |
|---|---|
| Airport | Domodedovo International Airport (UUDD) |
Arrival
| Time | N/A |
|---|---|
| Airport | Anapa Vityazevo Airport (URKA) |
| Time | Latitude | Longitude | Altitude | Speed | Heading |
|---|---|---|---|---|---|
| 2026-05-05 11:41 | 55.41088 | 37.89673 | 575 ft | 0 kts | 235° |
| 2026-05-05 11:42 | 55.41098 | 37.89700 | 578 ft | 4 kts | 234° |
| 2026-05-05 11:42 | 55.41111 | 37.89728 | 576 ft | 2 kts | 216° |
| 2026-05-05 11:42 | 55.41121 | 37.89737 | 576 ft | 2 kts | 170° |
| 2026-05-05 11:42 | 55.41132 | 37.89731 | 576 ft | 2 kts | 148° |
| 2026-05-05 11:43 | 55.41141 | 37.89720 | 576 ft | 2 kts | 144° |
| 2026-05-05 11:43 | 55.41143 | 37.89718 | 577 ft | 0 kts | 144° |
| 2026-05-05 11:48 | 55.41141 | 37.89720 | 576 ft | 0 kts | 144° |
| 2026-05-05 11:49 | 55.41096 | 37.89776 | 574 ft | 12 kts | 145° |
| 2026-05-05 11:49 | 55.41002 | 37.89856 | 572 ft | 14 kts | 193° |
| 2026-05-05 11:49 | 55.40938 | 37.89720 | 571 ft | 16 kts | 238° |
| 2026-05-05 11:49 | 55.40872 | 37.89561 | 573 ft | 16 kts | 225° |
| 2026-05-05 11:50 | 55.40797 | 37.89401 | 571 ft | 18 kts | 237° |
| 2026-05-05 11:50 | 55.40710 | 37.89257 | 571 ft | 15 kts | 173° |
| 2026-05-05 11:50 | 55.40648 | 37.89342 | 573 ft | 13 kts | 148° |
| 2026-05-05 11:50 | 55.40554 | 37.89446 | 568 ft | 21 kts | 148° |
| 2026-05-05 11:51 | 55.40405 | 37.89627 | 564 ft | 31 kts | 146° |
| 2026-05-05 11:51 | 55.40207 | 37.89863 | 557 ft | 36 kts | 146° |
| 2026-05-05 11:51 | 55.39997 | 37.90115 | 557 ft | 37 kts | 144° |
| 2026-05-05 11:51 | 55.39782 | 37.90376 | 547 ft | 38 kts | 146° |
| 2026-05-05 11:52 | 55.39657 | 37.90526 | 545 ft | 10 kts | 146° |
| 2026-05-05 11:52 | 55.39602 | 37.90529 | 544 ft | 6 kts | 244° |
| 2026-05-05 11:52 | 55.39573 | 37.90461 | 544 ft | 8 kts | 233° |
| 2026-05-05 11:52 | 55.39540 | 37.90357 | 542 ft | 12 kts | 248° |
| 2026-05-05 11:53 | 55.39558 | 37.90280 | 542 ft | 0 kts | 324° |
| 2026-05-05 11:53 | 55.39566 | 37.90270 | 542 ft | 13 kts | 325° |
| 2026-05-05 11:53 | 55.39872 | 37.89902 | 549 ft | 92 kts | 325° |
| 2026-05-05 11:54 | 55.40581 | 37.89047 | 571 ft | 153 kts | 325° |
| 2026-05-05 11:54 | 55.41534 | 37.87887 | 903 ft | 179 kts | 325° |
| 2026-05-05 11:54 | 55.42619 | 37.86573 | 1440 ft | 198 kts | 323° |
| 2026-05-05 11:54 | 55.43576 | 37.84963 | 2492 ft | 184 kts | 310° |
| 2026-05-05 11:55 | 55.44354 | 37.83231 | 3359 ft | 173 kts | 307° |
| 2026-05-05 11:55 | 55.45058 | 37.81596 | 3783 ft | 173 kts | 307° |
| 2026-05-05 11:55 | 55.45799 | 37.79824 | 4036 ft | 191 kts | 297° |
| 2026-05-05 11:55 | 55.46123 | 37.77439 | 4307 ft | 213 kts | 266° |
| 2026-05-05 11:56 | 55.45634 | 37.74970 | 4454 ft | 220 kts | 231° |
| 2026-05-05 11:56 | 55.44371 | 37.73377 | 5011 ft | 221 kts | 192° |
| 2026-05-05 11:56 | 55.43084 | 37.73506 | 6652 ft | 166 kts | 155° |
| 2026-05-05 11:56 | 55.41905 | 37.74600 | 6432 ft | 223 kts | 157° |
| 2026-05-05 11:57 | 55.40291 | 37.75420 | 6215 ft | 253 kts | 176° |
| 2026-05-05 11:57 | 55.38526 | 37.75145 | 6040 ft | 266 kts | 188° |
| 2026-05-05 11:57 | 55.36636 | 37.74958 | 5843 ft | 275 kts | 175° |
| 2026-05-05 11:57 | 55.34798 | 37.75725 | 5646 ft | 271 kts | 156° |
| 2026-05-05 11:58 | 55.33149 | 37.77301 | 5443 ft | 272 kts | 148° |
| 2026-05-05 11:58 | 55.31557 | 37.79092 | 5254 ft | 273 kts | 147° |
| 2026-05-05 11:58 | 55.29965 | 37.80864 | 5034 ft | 270 kts | 148° |
| 2026-05-05 11:58 | 55.28352 | 37.82566 | 4871 ft | 273 kts | 150° |
| 2026-05-05 11:59 | 55.26627 | 37.83921 | 5037 ft | 273 kts | 162° |
| 2026-05-05 11:59 | 55.24788 | 37.84750 | 5669 ft | 274 kts | 166° |
| 2026-05-05 11:59 | 55.22943 | 37.85556 | 6625 ft | 274 kts | 166° |
| 2026-05-05 11:59 | 55.21088 | 37.86387 | 7465 ft | 278 kts | 166° |
| 2026-05-05 12:00 | 55.19208 | 37.87230 | 8303 ft | 281 kts | 166° |
| 2026-05-05 12:00 | 55.17303 | 37.88081 | 9094 ft | 285 kts | 166° |
| 2026-05-05 12:00 | 55.15376 | 37.88938 | 9867 ft | 288 kts | 166° |
| 2026-05-05 12:00 | 55.13407 | 37.89810 | 10465 ft | 301 kts | 166° |
| 2026-05-05 12:01 | 55.11285 | 37.90579 | 10692 ft | 323 kts | 173° |
| 2026-05-05 12:01 | 55.08983 | 37.90759 | 11045 ft | 339 kts | 183° |
| 2026-05-05 12:01 | 55.06630 | 37.90306 | 11763 ft | 342 kts | 188° |
| 2026-05-05 12:01 | 55.04262 | 37.89763 | 12481 ft | 346 kts | 187° |
| 2026-05-05 12:02 | 55.01860 | 37.89315 | 13176 ft | 350 kts | 182° |
| 2026-05-05 12:02 | 54.99425 | 37.89517 | 13838 ft | 354 kts | 172° |
| 2026-05-05 12:02 | 54.97023 | 37.90489 | 14486 ft | 358 kts | 162° |
| 2026-05-05 12:02 | 54.94648 | 37.91822 | 15125 ft | 361 kts | 162° |
| 2026-05-05 12:03 | 54.92248 | 37.93152 | 15761 ft | 364 kts | 162° |
| 2026-05-05 12:03 | 54.89824 | 37.94482 | 16389 ft | 368 kts | 163° |
| 2026-05-05 12:03 | 54.87376 | 37.95818 | 16976 ft | 371 kts | 163° |
| 2026-05-05 12:03 | 54.84906 | 37.97161 | 17564 ft | 374 kts | 163° |
| 2026-05-05 12:04 | 54.82416 | 37.98505 | 18136 ft | 377 kts | 163° |
| 2026-05-05 12:04 | 54.79897 | 37.99836 | 18684 ft | 381 kts | 163° |
| 2026-05-05 12:04 | 54.77355 | 38.01167 | 19216 ft | 384 kts | 163° |
| 2026-05-05 12:04 | 54.74790 | 38.02511 | 19745 ft | 387 kts | 163° |
| 2026-05-05 12:05 | 54.72209 | 38.03863 | 20268 ft | 390 kts | 163° |
| 2026-05-05 12:05 | 54.69603 | 38.05230 | 20780 ft | 393 kts | 163° |
| 2026-05-05 12:05 | 54.66982 | 38.06605 | 21274 ft | 396 kts | 163° |
| 2026-05-05 12:05 | 54.64340 | 38.08011 | 21765 ft | 399 kts | 163° |
| 2026-05-05 12:06 | 54.61683 | 38.09434 | 22224 ft | 402 kts | 163° |
| 2026-05-05 12:06 | 54.59004 | 38.10868 | 22697 ft | 405 kts | 163° |
| 2026-05-05 12:06 | 54.56307 | 38.12307 | 23150 ft | 408 kts | 163° |
| 2026-05-05 12:06 | 54.53589 | 38.13754 | 23603 ft | 411 kts | 163° |
| 2026-05-05 12:07 | 54.50851 | 38.15208 | 24054 ft | 414 kts | 163° |
| 2026-05-05 12:07 | 54.48100 | 38.16671 | 24488 ft | 416 kts | 163° |
| 2026-05-05 12:07 | 54.45327 | 38.18147 | 24907 ft | 419 kts | 163° |